Biscoe, North Carolina
Current Conditions -  °F | °C
As of 3:55 AM on Wednesday 26 Nov 2014 (Local Time) from KHBI Reporting Station
Moderate Rain Moderate Rain  
Wind Chill: 41°   Ceiling: 800
Heat Index: 45°   Visibility: 7mi
Dew Point: 45°   Wind: 7mph
Humidity: 100%   Direction: 320°NW
Pressure: 29.99"   Gusts: NA
Location:  35.36°N, 79.78°W
Report Text: KHBI 260855Z AUTO 32006KT 7SM RA OVC008 07/07 A2999 RMK AO2 P0010 60029 T00710071
Loading
Personal Weather Stations






























Interactive Weather Map New forecast layout! Learn more

10-Day Weather Forecast

Advertisements
Track Severe Weather on mobile